Time;durP1;ratioP1;P1;durP2;ratioP2;P2;SDS_P1;SDS_P2;PMS_P1;PMS_P2;Temp;Humidity;BMP_temperature;BMP_pressure;BME280_temperature;BME280_humidity;BME280_pressure;Samples;Min_cycle;Max_cycle;Signal;HPM_P1;HPM_P2
2022/10/02 00:00:17;;;;;;;;;;;21.30;46.20;;;;;;485566;245;1291;-54
2022/10/02 00:02:19;;;;;;;;;;;21.30;46.20;;;;;;485599;245;1321;-53
2022/10/02 00:04:20;;;;;;;;;;;21.30;46.20;;;;;;485180;245;1245;-53
2022/10/02 00:06:21;;;;;;;;;;;21.30;46.30;;;;;;485567;245;1209;-53
2022/10/02 00:08:24;;;;;;;;;;;21.30;46.40;;;;;;485235;245;1206;-51
2022/10/02 00:10:24;;;;;;;;;;;21.30;46.30;;;;;;485203;246;1918;-54
2022/10/02 00:12:26;;;;;;;;;;;21.30;46.40;;;;;;485584;245;2202;-54
2022/10/02 00:14:27;;;;;;;;;;;21.30;46.30;;;;;;485652;245;1219;-53
2022/10/02 00:16:28;;;;;;;;;;;21.30;46.30;;;;;;485529;245;1213;-53
2022/10/02 00:18:30;;;;;;;;;;;21.30;46.40;;;;;;485315;245;1220;-53
2022/10/02 00:20:31;;;;;;;;;;;21.30;46.40;;;;;;485518;245;1327;-53
2022/10/02 00:22:32;;;;;;;;;;;21.30;46.40;;;;;;485467;245;1050;-53
2022/10/02 00:24:34;;;;;;;;;;;21.30;46.40;;;;;;485255;245;1318;-52
2022/10/02 00:26:35;;;;;;;;;;;21.30;46.40;;;;;;485728;245;1073;-53
2022/10/02 00:28:36;;;;;;;;;;;21.30;46.40;;;;;;485531;245;1147;-54
2022/10/02 00:30:38;;;;;;;;;;;21.30;46.40;;;;;;485696;245;1036;-53
2022/10/02 00:32:39;;;;;;;;;;;21.30;46.40;;;;;;485332;245;2206;-54
2022/10/02 00:34:40;;;;;;;;;;;21.30;46.40;;;;;;485153;245;1093;-53
2022/10/02 00:36:42;;;;;;;;;;;21.30;46.30;;;;;;485279;245;1089;-53
2022/10/02 00:38:43;;;;;;;;;;;21.30;46.30;;;;;;485285;245;1163;-53
2022/10/02 00:40:44;;;;;;;;;;;21.30;46.40;;;;;;485333;245;1140;-53
2022/10/02 00:42:46;;;;;;;;;;;21.30;46.30;;;;;;485646;245;1113;-53
2022/10/02 00:44:47;;;;;;;;;;;21.30;46.40;;;;;;485251;245;1069;-53
2022/10/02 00:46:48;;;;;;;;;;;21.30;46.40;;;;;;485256;245;1186;-54
2022/10/02 00:48:49;;;;;;;;;;;21.30;46.40;;;;;;485244;245;1362;-53
2022/10/02 00:50:51;;;;;;;;;;;21.30;46.30;;;;;;485237;245;2203;-54
2022/10/02 00:52:52;;;;;;;;;;;21.30;46.30;;;;;;485258;245;1200;-54
2022/10/02 00:54:53;;;;;;;;;;;21.30;46.30;;;;;;485431;245;1383;-53
2022/10/02 00:56:55;;;;;;;;;;;21.30;46.30;;;;;;485241;245;1333;-54
2022/10/02 00:58:56;;;;;;;;;;;21.30;46.30;;;;;;485641;245;1344;-54
2022/10/02 01:00:58;;;;;;;;;;;21.30;46.30;;;;;;485562;245;1169;-53
2022/10/02 01:02:59;;;;;;;;;;;21.30;46.40;;;;;;485346;245;1334;-53
2022/10/02 01:05:00;;;;;;;;;;;21.30;46.40;;;;;;485519;245;1289;-53
2022/10/02 01:07:01;;;;;;;;;;;21.30;46.50;;;;;;485479;245;1284;-54
2022/10/02 01:09:03;;;;;;;;;;;21.30;46.40;;;;;;485252;245;1175;-54
2022/10/02 01:11:04;;;;;;;;;;;21.30;46.40;;;;;;485310;245;2207;-54
2022/10/02 01:13:05;;;;;;;;;;;21.30;46.40;;;;;;485672;245;1192;-53
2022/10/02 01:15:07;;;;;;;;;;;21.30;46.40;;;;;;485553;245;1136;-53
2022/10/02 01:17:08;;;;;;;;;;;21.30;46.50;;;;;;485247;245;1203;-53
2022/10/02 01:19:09;;;;;;;;;;;21.30;46.40;;;;;;485610;245;1146;-53
2022/10/02 01:21:11;;;;;;;;;;;21.30;46.50;;;;;;485698;245;1123;-52
2022/10/02 01:23:12;;;;;;;;;;;21.30;46.50;;;;;;485256;245;1132;-53
2022/10/02 01:25:13;;;;;;;;;;;21.30;46.50;;;;;;485552;245;1274;-53
2022/10/02 01:27:15;;;;;;;;;;;21.30;46.50;;;;;;485664;245;1224;-53
2022/10/02 01:29:16;;;;;;;;;;;21.30;46.50;;;;;;485402;245;1197;-53
2022/10/02 01:31:17;;;;;;;;;;;21.30;46.40;;;;;;485452;245;2160;-54
2022/10/02 01:33:19;;;;;;;;;;;21.30;46.50;;;;;;485360;245;1252;-53
2022/10/02 01:35:20;;;;;;;;;;;21.30;46.50;;;;;;485224;245;1216;-53
2022/10/02 01:37:21;;;;;;;;;;;21.30;46.50;;;;;;485228;245;1301;-53
2022/10/02 01:39:23;;;;;;;;;;;21.30;46.50;;;;;;485232;245;1110;-53
2022/10/02 01:41:24;;;;;;;;;;;21.30;46.50;;;;;;485256;245;1224;-53
2022/10/02 01:43:26;;;;;;;;;;;21.30;46.50;;;;;;485249;245;1329;-54
2022/10/02 01:45:27;;;;;;;;;;;21.30;46.50;;;;;;485221;245;1227;-53
2022/10/02 01:47:28;;;;;;;;;;;21.30;46.60;;;;;;485676;245;1272;-52
2022/10/02 01:49:29;;;;;;;;;;;21.20;46.50;;;;;;485683;245;1266;-53
2022/10/02 01:51:31;;;;;;;;;;;21.30;46.50;;;;;;485530;245;2198;-53
2022/10/02 01:53:32;;;;;;;;;;;21.30;46.60;;;;;;485704;245;1219;-53
2022/10/02 01:55:33;;;;;;;;;;;21.30;46.60;;;;;;485263;245;1130;-54
2022/10/02 01:57:35;;;;;;;;;;;21.30;46.60;;;;;;485690;245;1209;-54
2022/10/02 01:59:36;;;;;;;;;;;21.20;46.60;;;;;;485217;245;1207;-53
2022/10/02 02:01:37;;;;;;;;;;;21.20;46.50;;;;;;485681;245;1200;-53
2022/10/02 02:03:39;;;;;;;;;;;21.30;46.60;;;;;;485031;245;1205;-53
2022/10/02 02:05:40;;;;;;;;;;;21.30;46.50;;;;;;485679;245;1187;-53
2022/10/02 02:07:41;;;;;;;;;;;21.30;46.60;;;;;;485370;245;1221;-53
2022/10/02 02:09:43;;;;;;;;;;;21.20;46.50;;;;;;485261;245;1227;-54
2022/10/02 02:11:44;;;;;;;;;;;21.20;46.50;;;;;;485288;245;2183;-54
2022/10/02 02:13:45;;;;;;;;;;;21.20;46.50;;;;;;485678;245;1282;-54
2022/10/02 02:15:47;;;;;;;;;;;21.30;46.60;;;;;;485642;245;1510;-53
2022/10/02 02:17:48;;;;;;;;;;;21.30;46.60;;;;;;485240;245;1172;-53
2022/10/02 02:19:49;;;;;;;;;;;21.30;46.60;;;;;;485670;245;1264;-53
2022/10/02 02:21:51;;;;;;;;;;;21.20;46.50;;;;;;485234;245;1251;-54
2022/10/02 02:23:52;;;;;;;;;;;21.20;46.60;;;;;;485240;242;1110;-53
2022/10/02 02:25:53;;;;;;;;;;;21.20;46.60;;;;;;485239;245;1195;-54
2022/10/02 02:27:55;;;;;;;;;;;21.20;46.60;;;;;;485458;245;1175;-54
2022/10/02 02:29:56;;;;;;;;;;;21.30;46.60;;;;;;485233;245;1298;-53
2022/10/02 02:31:57;;;;;;;;;;;21.30;46.60;;;;;;485544;245;2152;-54
2022/10/02 02:33:59;;;;;;;;;;;21.30;46.60;;;;;;485162;245;1108;-53
2022/10/02 02:36:00;;;;;;;;;;;21.20;46.60;;;;;;485298;245;1229;-53
2022/10/02 02:38:01;;;;;;;;;;;21.30;46.60;;;;;;485223;245;1235;-53
2022/10/02 02:40:03;;;;;;;;;;;21.30;46.60;;;;;;485473;245;1182;-53
2022/10/02 02:42:04;;;;;;;;;;;21.30;46.60;;;;;;485188;245;1232;-53
2022/10/02 02:44:05;;;;;;;;;;;21.20;46.60;;;;;;485269;245;1245;-53
2022/10/02 02:46:07;;;;;;;;;;;21.20;46.60;;;;;;485203;245;1181;-53
2022/10/02 02:48:08;;;;;;;;;;;21.30;46.60;;;;;;485244;245;1176;-53
2022/10/02 02:50:09;;;;;;;;;;;21.30;46.60;;;;;;485491;245;1315;-53
2022/10/02 02:52:11;;;;;;;;;;;21.30;46.50;;;;;;485520;245;2159;-52
2022/10/02 02:54:12;;;;;;;;;;;21.30;46.50;;;;;;485657;245;1230;-53
2022/10/02 02:56:13;;;;;;;;;;;21.30;46.60;;;;;;485573;245;1231;-53
2022/10/02 02:58:15;;;;;;;;;;;21.30;46.60;;;;;;485210;245;1367;-53
2022/10/02 03:00:16;;;;;;;;;;;21.30;46.50;;;;;;485371;245;1341;-53
2022/10/02 03:02:17;;;;;;;;;;;21.30;46.50;;;;;;485590;245;1512;-53
2022/10/02 03:04:19;;;;;;;;;;;21.30;46.50;;;;;;485082;245;1211;-53
2022/10/02 03:06:20;;;;;;;;;;;21.30;46.50;;;;;;485459;245;1200;-53
2022/10/02 03:08:21;;;;;;;;;;;21.30;46.50;;;;;;485669;245;1460;-52
2022/10/02 03:10:23;;;;;;;;;;;21.30;46.50;;;;;;485270;245;1347;-53
2022/10/02 03:12:24;;;;;;;;;;;21.30;46.50;;;;;;485362;245;2203;-53
2022/10/02 03:14:25;;;;;;;;;;;21.30;46.60;;;;;;485683;245;1195;-53
2022/10/02 03:16:27;;;;;;;;;;;21.20;46.50;;;;;;485666;245;1326;-54
2022/10/02 03:18:28;;;;;;;;;;;21.30;46.50;;;;;;485700;245;1247;-54
2022/10/02 03:20:29;;;;;;;;;;;21.30;46.60;;;;;;485255;245;1207;-53
2022/10/02 03:22:34;;;;;;;;;;;21.30;46.50;;;;;;485667;245;1383;-53
2022/10/02 03:24:32;;;;;;;;;;;21.30;46.60;;;;;;485406;246;2396;-53
2022/10/02 03:26:33;;;;;;;;;;;21.30;46.70;;;;;;485605;245;1235;-53
2022/10/02 03:28:35;;;;;;;;;;;21.30;46.60;;;;;;485563;245;1308;-53
2022/10/02 03:30:36;;;;;;;;;;;21.30;46.60;;;;;;485222;245;1318;-53
2022/10/02 03:32:37;;;;;;;;;;;21.30;46.60;;;;;;485548;245;2173;-53
2022/10/02 03:34:39;;;;;;;;;;;21.30;46.60;;;;;;485498;245;1220;-54
2022/10/02 03:36:40;;;;;;;;;;;21.30;46.60;;;;;;485531;245;1136;-52
2022/10/02 03:38:41;;;;;;;;;;;21.30;46.60;;;;;;485493;245;1166;-52
2022/10/02 03:40:43;;;;;;;;;;;21.30;46.60;;;;;;485683;245;1231;-53
2022/10/02 03:42:44;;;;;;;;;;;21.30;46.60;;;;;;485415;245;1230;-53
2022/10/02 03:44:45;;;;;;;;;;;21.30;46.60;;;;;;485226;245;1202;-53
2022/10/02 03:46:47;;;;;;;;;;;21.30;46.60;;;;;;485374;245;1128;-53
2022/10/02 03:48:48;;;;;;;;;;;21.30;46.60;;;;;;485687;245;1177;-53
2022/10/02 03:50:50;;;;;;;;;;;21.30;46.60;;;;;;485698;245;1160;-53
2022/10/02 03:52:51;;;;;;;;;;;21.30;46.50;;;;;;485238;245;2195;-53
2022/10/02 03:54:52;;;;;;;;;;;21.30;46.50;;;;;;485696;245;1522;-53
2022/10/02 03:56:54;;;;;;;;;;;21.30;46.60;;;;;;485596;245;1119;-53
2022/10/02 03:58:55;;;;;;;;;;;21.30;46.60;;;;;;485389;245;1314;-53
2022/10/02 04:00:57;;;;;;;;;;;21.30;46.50;;;;;;485691;245;1100;-54
2022/10/02 04:02:58;;;;;;;;;;;21.30;46.60;;;;;;485379;245;1243;-53
2022/10/02 04:04:59;;;;;;;;;;;21.30;46.60;;;;;;485658;245;1206;-52
2022/10/02 04:07:01;;;;;;;;;;;21.30;46.60;;;;;;485230;245;1183;-53
2022/10/02 04:09:02;;;;;;;;;;;21.30;46.60;;;;;;485685;245;1224;-53
2022/10/02 04:11:03;;;;;;;;;;;21.30;46.50;;;;;;485235;245;1280;-54
2022/10/02 04:13:05;;;;;;;;;;;21.30;46.60;;;;;;485385;245;2168;-54
2022/10/02 04:15:06;;;;;;;;;;;21.30;46.50;;;;;;485427;245;1393;-53
2022/10/02 04:17:07;;;;;;;;;;;21.30;46.60;;;;;;485394;245;1214;-54
2022/10/02 04:19:09;;;;;;;;;;;21.30;46.60;;;;;;485218;245;1337;-54
2022/10/02 04:21:10;;;;;;;;;;;21.30;46.60;;;;;;485297;245;1187;-53
2022/10/02 04:23:11;;;;;;;;;;;21.30;46.50;;;;;;485678;245;1306;-53
2022/10/02 04:25:13;;;;;;;;;;;21.30;46.60;;;;;;485439;245;1284;-53
2022/10/02 04:27:14;;;;;;;;;;;21.30;46.60;;;;;;485619;245;1220;-53
2022/10/02 04:29:15;;;;;;;;;;;21.30;46.60;;;;;;485561;245;1252;-54
2022/10/02 04:31:17;;;;;;;;;;;21.30;46.60;;;;;;485632;245;1336;-53
2022/10/02 04:33:18;;;;;;;;;;;21.30;46.60;;;;;;485366;245;2156;-53
2022/10/02 04:35:19;;;;;;;;;;;21.30;46.60;;;;;;485322;245;1172;-53
2022/10/02 04:37:21;;;;;;;;;;;21.30;46.50;;;;;;485271;245;1332;-53
2022/10/02 04:39:22;;;;;;;;;;;21.30;46.60;;;;;;485272;245;1114;-54
2022/10/02 04:41:23;;;;;;;;;;;21.30;46.60;;;;;;485637;245;1112;-53
2022/10/02 04:43:25;;;;;;;;;;;21.30;46.60;;;;;;485473;245;1137;-54
2022/10/02 04:45:26;;;;;;;;;;;21.30;46.60;;;;;;485677;245;1162;-53
2022/10/02 04:47:27;;;;;;;;;;;21.30;46.60;;;;;;485236;245;1290;-52
2022/10/02 04:49:29;;;;;;;;;;;21.30;46.60;;;;;;485596;245;1298;-54
2022/10/02 04:51:30;;;;;;;;;;;21.30;46.60;;;;;;485236;245;1263;-53
2022/10/02 04:53:31;;;;;;;;;;;21.30;46.60;;;;;;485702;245;2194;-53
2022/10/02 04:55:33;;;;;;;;;;;21.30;46.60;;;;;;485539;245;1217;-53
2022/10/02 04:57:34;;;;;;;;;;;21.30;46.60;;;;;;485237;245;1173;-53
2022/10/02 04:59:35;;;;;;;;;;;21.30;46.70;;;;;;485322;245;1222;-54
2022/10/02 05:01:37;;;;;;;;;;;21.30;46.70;;;;;;485213;245;1268;-53
2022/10/02 05:03:38;;;;;;;;;;;21.30;46.70;;;;;;485056;245;1237;-53
2022/10/02 05:05:39;;;;;;;;;;;21.30;46.70;;;;;;485242;245;1253;-53
2022/10/02 05:07:41;;;;;;;;;;;21.30;46.70;;;;;;485249;245;1239;-53
2022/10/02 05:09:42;;;;;;;;;;;21.20;46.60;;;;;;485232;245;1245;-52
2022/10/02 05:11:43;;;;;;;;;;;21.30;46.70;;;;;;485689;245;1239;-53
2022/10/02 05:13:45;;;;;;;;;;;21.30;46.70;;;;;;485451;245;2155;-54
2022/10/02 05:15:46;;;;;;;;;;;21.30;46.70;;;;;;485215;245;1242;-53
2022/10/02 05:17:47;;;;;;;;;;;21.30;46.60;;;;;;485485;245;1106;-53
2022/10/02 05:19:49;;;;;;;;;;;21.30;46.60;;;;;;485640;245;1122;-53
2022/10/02 05:21:50;;;;;;;;;;;21.30;46.60;;;;;;485269;245;1112;-53
2022/10/02 05:23:51;;;;;;;;;;;21.30;46.70;;;;;;485250;245;1172;-53
2022/10/02 05:25:53;;;;;;;;;;;21.30;46.70;;;;;;485252;245;1282;-54
2022/10/02 05:27:54;;;;;;;;;;;21.30;46.70;;;;;;485485;245;1351;-53
2022/10/02 05:29:55;;;;;;;;;;;21.30;46.70;;;;;;485278;245;1238;-53
2022/10/02 05:31:57;;;;;;;;;;;21.30;46.70;;;;;;485211;245;1348;-53
2022/10/02 05:33:58;;;;;;;;;;;21.30;46.70;;;;;;485084;245;2206;-53
2022/10/02 05:35:59;;;;;;;;;;;21.30;46.80;;;;;;485553;245;1713;-53
2022/10/02 05:38:01;;;;;;;;;;;21.30;46.70;;;;;;485260;245;1227;-53
2022/10/02 05:40:02;;;;;;;;;;;21.20;46.70;;;;;;485747;245;1358;-53
2022/10/02 05:42:03;;;;;;;;;;;21.20;46.70;;;;;;485095;245;1697;-53
2022/10/02 05:44:05;;;;;;;;;;;21.20;46.70;;;;;;485537;245;1250;-53
2022/10/02 05:46:06;;;;;;;;;;;21.30;46.70;;;;;;485156;245;1198;-53
2022/10/02 05:48:07;;;;;;;;;;;21.20;46.70;;;;;;485298;245;1168;-53
2022/10/02 05:50:09;;;;;;;;;;;21.20;46.70;;;;;;485777;245;1114;-53
2022/10/02 05:52:10;;;;;;;;;;;21.20;46.70;;;;;;485331;245;1076;-53
2022/10/02 05:54:11;;;;;;;;;;;21.20;46.70;;;;;;485567;245;2164;-53
2022/10/02 05:56:13;;;;;;;;;;;21.30;46.70;;;;;;485330;245;1142;-52
2022/10/02 05:58:14;;;;;;;;;;;21.20;46.70;;;;;;485774;245;1070;-54
2022/10/02 06:00:15;;;;;;;;;;;21.20;46.70;;;;;;485358;245;1064;-53
2022/10/02 06:02:16;;;;;;;;;;;21.20;46.70;;;;;;485640;245;1200;-53
2022/10/02 06:04:18;;;;;;;;;;;21.30;46.70;;;;;;485508;245;1117;-53
2022/10/02 06:06:19;;;;;;;;;;;21.30;46.80;;;;;;485413;245;1161;-53
2022/10/02 06:08:21;;;;;;;;;;;21.30;46.80;;;;;;485750;245;1348;-54
2022/10/02 06:10:22;;;;;;;;;;;21.20;46.70;;;;;;485762;245;1277;-53
2022/10/02 06:12:25;;;;;;;;;;;21.30;46.70;;;;;;485304;245;1306;-53
2022/10/02 06:14:26;;;;;;;;;;;21.20;46.70;;;;;;485162;246;2750;-53
2022/10/02 06:16:27;;;;;;;;;;;21.30;46.70;;;;;;485375;245;1500;-53
2022/10/02 06:18:28;;;;;;;;;;;21.20;46.60;;;;;;485285;245;1196;-53
2022/10/02 06:20:29;;;;;;;;;;;21.30;46.70;;;;;;485265;245;1188;-53
2022/10/02 06:22:31;;;;;;;;;;;21.20;46.70;;;;;;485331;245;1284;-54
2022/10/02 06:24:32;;;;;;;;;;;21.20;46.60;;;;;;485297;245;1382;-54
2022/10/02 06:26:33;;;;;;;;;;;21.30;46.70;;;;;;485594;245;1222;-54
2022/10/02 06:28:35;;;;;;;;;;;21.30;46.70;;;;;;485727;245;1283;-53
2022/10/02 06:30:36;;;;;;;;;;;21.30;46.80;;;;;;485351;245;1268;-54
2022/10/02 06:32:37;;;;;;;;;;;21.20;46.70;;;;;;485416;245;1653;-53
2022/10/02 06:34:39;;;;;;;;;;;21.20;46.70;;;;;;485530;245;2151;-53
2022/10/02 06:36:40;;;;;;;;;;;21.20;46.80;;;;;;485275;245;1316;-53
2022/10/02 06:38:41;;;;;;;;;;;21.30;46.80;;;;;;485300;245;1277;-54
2022/10/02 06:40:43;;;;;;;;;;;21.30;46.70;;;;;;485330;245;1576;-54
2022/10/02 06:42:44;;;;;;;;;;;21.20;46.70;;;;;;485735;245;1313;-53
2022/10/02 06:44:46;;;;;;;;;;;21.20;46.80;;;;;;485550;245;1553;-53
2022/10/02 06:46:48;;;;;;;;;;;21.20;46.80;;;;;;485280;245;1309;-54
2022/10/02 06:48:49;;;;;;;;;;;21.20;46.80;;;;;;485335;245;2325;-53
2022/10/02 06:50:50;;;;;;;;;;;21.20;46.80;;;;;;485702;245;1234;-54
2022/10/02 06:52:51;;;;;;;;;;;21.20;46.80;;;;;;485726;245;1311;-53
2022/10/02 06:54:53;;;;;;;;;;;21.20;46.70;;;;;;485369;245;2160;-54
2022/10/02 06:56:54;;;;;;;;;;;21.20;46.80;;;;;;485717;245;1342;-53
2022/10/02 06:58:55;;;;;;;;;;;21.20;46.80;;;;;;485229;245;1213;-53
2022/10/02 07:00:57;;;;;;;;;;;21.20;46.80;;;;;;485255;245;1315;-53
2022/10/02 07:02:58;;;;;;;;;;;21.20;46.80;;;;;;485168;245;1292;-53
2022/10/02 07:05:00;;;;;;;;;;;21.20;46.80;;;;;;485465;245;1465;-53
2022/10/02 07:07:01;;;;;;;;;;;21.30;46.80;;;;;;485730;245;1223;-53
2022/10/02 07:09:02;;;;;;;;;;;21.20;46.80;;;;;;485240;245;1249;-53
2022/10/02 07:11:03;;;;;;;;;;;21.20;46.90;;;;;;485405;245;1289;-53
2022/10/02 07:13:06;;;;;;;;;;;21.20;46.80;;;;;;485280;245;2160;-53
2022/10/02 07:15:06;;;;;;;;;;;21.20;46.80;;;;;;485274;246;1395;-53
2022/10/02 07:17:08;;;;;;;;;;;21.20;46.80;;;;;;485754;245;1240;-53
2022/10/02 07:19:09;;;;;;;;;;;21.30;46.80;;;;;;485490;245;1283;-53
2022/10/02 07:21:10;;;;;;;;;;;21.20;46.80;;;;;;485300;245;1243;-53
2022/10/02 07:23:12;;;;;;;;;;;21.20;46.80;;;;;;485764;245;1294;-54
2022/10/02 07:25:14;;;;;;;;;;;21.20;46.80;;;;;;485776;245;1110;-53
2022/10/02 07:27:15;;;;;;;;;;;21.20;46.80;;;;;;485696;245;1554;-54
2022/10/02 07:29:16;;;;;;;;;;;21.30;46.80;;;;;;485582;245;1134;-53
2022/10/02 07:31:17;;;;;;;;;;;21.20;46.80;;;;;;485404;245;1257;-53
2022/10/02 07:33:19;;;;;;;;;;;21.20;46.80;;;;;;485108;245;2236;-53
2022/10/02 07:35:20;;;;;;;;;;;21.30;46.80;;;;;;485782;245;1234;-53
2022/10/02 07:37:21;;;;;;;;;;;21.20;46.80;;;;;;485755;245;1438;-52
2022/10/02 07:39:24;;;;;;;;;;;21.20;46.90;;;;;;485754;245;1225;-54
2022/10/02 07:41:24;;;;;;;;;;;21.20;46.90;;;;;;485486;246;1449;-53
2022/10/02 07:43:25;;;;;;;;;;;21.20;46.90;;;;;;485322;245;1335;-53
2022/10/02 07:45:27;;;;;;;;;;;21.20;46.90;;;;;;485613;245;1130;-53
2022/10/02 07:47:28;;;;;;;;;;;21.20;46.80;;;;;;485755;245;1196;-53
2022/10/02 07:49:29;;;;;;;;;;;21.20;46.80;;;;;;485526;245;1201;-53
2022/10/02 07:51:49;;;;;;;;;;;21.30;46.90;;;;;;485296;245;1201;-54
2022/10/02 07:53:50;;;;;;;;;;;21.20;46.80;;;;;;485718;245;2186;-52
2022/10/02 07:55:52;;;;;;;;;;;21.20;46.90;;;;;;485440;245;1242;-52
2022/10/02 07:57:53;;;;;;;;;;;21.20;46.90;;;;;;485733;245;2052;-53
2022/10/02 07:59:54;;;;;;;;;;;21.20;46.90;;;;;;485304;245;1202;-52
2022/10/02 08:01:56;;;;;;;;;;;21.20;46.90;;;;;;485378;245;1232;-54
2022/10/02 08:03:57;;;;;;;;;;;21.20;46.90;;;;;;485167;245;1233;-53
2022/10/02 08:05:58;;;;;;;;;;;21.20;46.80;;;;;;485333;245;1237;-53
2022/10/02 08:08:00;;;;;;;;;;;21.20;46.80;;;;;;485763;245;1299;-53
2022/10/02 08:10:01;;;;;;;;;;;21.20;46.80;;;;;;485772;245;1310;-54
2022/10/02 08:12:02;;;;;;;;;;;21.30;46.90;;;;;;485528;245;1355;-53
2022/10/02 08:14:04;;;;;;;;;;;21.20;46.80;;;;;;485702;245;2159;-54
2022/10/02 08:16:05;;;;;;;;;;;21.20;46.90;;;;;;485601;245;1215;-53
2022/10/02 08:18:06;;;;;;;;;;;21.20;46.90;;;;;;485776;245;1311;-53
2022/10/02 08:20:08;;;;;;;;;;;21.20;46.90;;;;;;485318;245;1242;-53
2022/10/02 08:22:09;;;;;;;;;;;21.20;46.90;;;;;;485770;245;1331;-53
2022/10/02 08:24:10;;;;;;;;;;;21.20;46.80;;;;;;485765;245;1221;-53
2022/10/02 08:26:12;;;;;;;;;;;21.30;46.90;;;;;;485288;245;1187;-53
2022/10/02 08:28:13;;;;;;;;;;;21.30;46.90;;;;;;485753;245;1180;-54
2022/10/02 08:30:14;;;;;;;;;;;21.20;46.80;;;;;;485646;245;1271;-52
2022/10/02 08:32:16;;;;;;;;;;;21.20;46.80;;;;;;485317;245;1339;-54
2022/10/02 08:34:17;;;;;;;;;;;21.20;46.80;;;;;;485150;245;2209;-53
2022/10/02 08:36:19;;;;;;;;;;;21.30;46.90;;;;;;485748;245;1209;-53
2022/10/02 08:38:20;;;;;;;;;;;21.20;46.90;;;;;;485746;245;1384;-53
2022/10/02 08:40:22;;;;;;;;;;;21.20;46.90;;;;;;485312;245;1213;-54
2022/10/02 08:42:23;;;;;;;;;;;21.20;46.80;;;;;;485318;245;1446;-53
2022/10/02 08:44:24;;;;;;;;;;;21.20;46.90;;;;;;485430;245;1299;-53
2022/10/02 08:46:26;;;;;;;;;;;21.20;46.80;;;;;;485282;245;1277;-53
2022/10/02 08:48:27;;;;;;;;;;;21.20;46.90;;;;;;485749;245;1329;-53
2022/10/02 08:50:28;;;;;;;;;;;21.20;46.90;;;;;;485732;245;1208;-53
2022/10/02 08:52:30;;;;;;;;;;;21.20;46.90;;;;;;485706;245;1232;-54
2022/10/02 08:54:31;;;;;;;;;;;21.20;46.90;;;;;;485298;245;2141;-53
2022/10/02 08:56:32;;;;;;;;;;;21.20;46.90;;;;;;485330;245;1340;-53
2022/10/02 08:58:34;;;;;;;;;;;21.20;46.90;;;;;;485711;245;1304;-54
2022/10/02 09:00:35;;;;;;;;;;;21.20;46.90;;;;;;485313;245;1260;-54
2022/10/02 09:02:36;;;;;;;;;;;21.20;46.90;;;;;;485198;245;1250;-53
2022/10/02 09:04:39;;;;;;;;;;;21.30;46.90;;;;;;485263;245;1201;-54
2022/10/02 09:06:39;;;;;;;;;;;21.20;46.90;;;;;;485649;245;1511;-53
2022/10/02 09:08:41;;;;;;;;;;;21.20;46.90;;;;;;485746;245;1261;-53
2022/10/02 09:10:44;;;;;;;;;;;21.20;46.90;;;;;;485291;245;1256;-53
2022/10/02 09:12:44;;;;;;;;;;;21.20;46.90;;;;;;485229;246;1590;-53
2022/10/02 09:14:47;;;;;;;;;;;21.20;47.00;;;;;;485521;245;2163;-54
2022/10/02 09:16:47;;;;;;;;;;;21.20;47.00;;;;;;485192;246;1483;-53
2022/10/02 09:18:48;;;;;;;;;;;21.20;47.00;;;;;;485755;245;1227;-53
2022/10/02 09:20:49;;;;;;;;;;;21.20;46.90;;;;;;485325;245;1245;-53
2022/10/02 09:22:51;;;;;;;;;;;21.20;46.90;;;;;;485267;245;1367;-53
2022/10/02 09:24:52;;;;;;;;;;;21.20;46.90;;;;;;485283;245;1252;-53
2022/10/02 09:26:53;;;;;;;;;;;21.20;46.90;;;;;;485697;245;1258;-53
2022/10/02 09:28:55;;;;;;;;;;;21.20;46.90;;;;;;485227;245;1360;-53
2022/10/02 09:30:57;;;;;;;;;;;21.20;46.90;;;;;;485381;245;1395;-53
2022/10/02 09:32:58;;;;;;;;;;;21.20;46.90;;;;;;485137;245;1337;-53
2022/10/02 09:35:00;;;;;;;;;;;21.20;46.90;;;;;;485258;245;2151;-53
2022/10/02 09:37:01;;;;;;;;;;;21.20;46.90;;;;;;485199;245;1938;-53
2022/10/02 09:39:02;;;;;;;;;;;21.20;47.00;;;;;;485607;245;1274;-53
2022/10/02 09:41:03;;;;;;;;;;;21.20;47.00;;;;;;485713;245;1217;-54
2022/10/02 09:43:04;;;;;;;;;;;21.20;47.00;;;;;;485655;245;1320;-52
2022/10/02 09:45:06;;;;;;;;;;;21.20;47.00;;;;;;485714;245;1248;-53
2022/10/02 09:47:07;;;;;;;;;;;21.20;47.00;;;;;;485361;245;1313;-53
2022/10/02 09:49:08;;;;;;;;;;;21.20;47.00;;;;;;485348;245;1228;-54
2022/10/02 09:51:10;;;;;;;;;;;21.20;47.00;;;;;;485751;245;1257;-54
2022/10/02 09:53:11;;;;;;;;;;;21.20;46.90;;;;;;485321;245;1304;-53
2022/10/02 09:55:12;;;;;;;;;;;21.20;46.90;;;;;;485296;245;2152;-54
2022/10/02 09:57:14;;;;;;;;;;;21.20;47.00;;;;;;485322;245;1263;-53
2022/10/02 09:59:16;;;;;;;;;;;21.20;47.00;;;;;;485498;245;1317;-53
2022/10/02 10:01:17;;;;;;;;;;;21.20;47.00;;;;;;485585;245;1204;-53
2022/10/02 10:03:18;;;;;;;;;;;21.20;47.00;;;;;;485178;245;1276;-54
2022/10/02 10:05:20;;;;;;;;;;;21.20;47.00;;;;;;485540;245;1235;-53
2022/10/02 10:07:21;;;;;;;;;;;21.20;47.00;;;;;;485353;245;1098;-53
2022/10/02 10:09:22;;;;;;;;;;;21.20;47.00;;;;;;485778;245;1140;-53
2022/10/02 10:11:28;;;;;;;;;;;21.20;47.00;;;;;;485380;245;1097;-54
2022/10/02 10:13:25;;;;;;;;;;;21.20;47.00;;;;;;485037;246;2052;-53
2022/10/02 10:15:28;;;;;;;;;;;21.20;47.00;;;;;;485470;245;2151;-53
2022/10/02 10:17:29;;;;;;;;;;;21.20;47.00;;;;;;485220;246;2415;-53
2022/10/02 10:19:30;;;;;;;;;;;21.20;46.90;;;;;;485689;246;1865;-53
2022/10/02 10:21:30;;;;;;;;;;;21.20;46.70;;;;;;485255;245;2546;-53
2022/10/02 10:23:35;;;;;;;;;;;21.20;46.60;;;;;;485745;245;1299;-53
2022/10/02 10:25:33;;;;;;;;;;;21.30;46.40;;;;;;485103;246;1473;-53
2022/10/02 10:27:34;;;;;;;;;;;21.30;46.40;;;;;;485748;245;1299;-54
2022/10/02 10:29:37;;;;;;;;;;;21.30;46.20;;;;;;485718;245;1256;-53
2022/10/02 10:31:38;;;;;;;;;;;21.30;46.20;;;;;;485442;246;1980;-54
2022/10/02 10:33:40;;;;;;;;;;;21.30;46.20;;;;;;485118;245;1382;-53
2022/10/02 10:35:40;;;;;;;;;;;21.30;46.00;;;;;;485653;246;2167;-53
2022/10/02 10:40:01;;;;;;;;;;;21.30;45.80;;;;;;485721;246;1400;-54
2022/10/02 10:42:04;;;;;;;;;;;21.30;45.80;;;;;;485723;245;1260;-54
2022/10/02 10:44:03;;;;;;;;;;;21.30;45.70;;;;;;485235;245;2295;-54
2022/10/02 10:46:05;;;;;;;;;;;21.40;45.70;;;;;;485275;245;1362;-54
2022/10/02 10:48:06;;;;;;;;;;;21.30;45.60;;;;;;485382;245;1255;-53
2022/10/02 10:50:07;;;;;;;;;;;21.40;45.60;;;;;;485370;245;1264;-53
2022/10/02 10:52:12;;;;;;;;;;;21.40;45.50;;;;;;485330;245;1242;-54
2022/10/02 10:54:11;;;;;;;;;;;21.30;45.40;;;;;;485496;246;2256;-54
2022/10/02 10:56:11;;;;;;;;;;;21.30;45.40;;;;;;485286;245;2678;-54
2022/10/02 10:58:13;;;;;;;;;;;21.40;45.30;;;;;;485760;245;1083;-53
2022/10/02 11:00:15;;;;;;;;;;;21.40;45.30;;;;;;485483;245;1181;-54
2022/10/02 11:02:16;;;;;;;;;;;21.30;45.20;;;;;;485660;245;1067;-54
2022/10/02 11:04:17;;;;;;;;;;;21.40;45.20;;;;;;485153;245;1140;-53
2022/10/02 11:06:19;;;;;;;;;;;21.40;45.10;;;;;;485750;245;1183;-53
2022/10/02 11:08:20;;;;;;;;;;;21.40;45.10;;;;;;485334;245;1150;-54
2022/10/02 11:10:21;;;;;;;;;;;21.40;45.00;;;;;;485319;245;1219;-53
2022/10/02 11:12:23;;;;;;;;;;;21.40;45.00;;;;;;485322;245;1137;-53
2022/10/02 11:14:25;;;;;;;;;;;21.40;45.00;;;;;;485742;245;1156;-53
2022/10/02 11:16:25;;;;;;;;;;;21.40;44.80;;;;;;485256;242;2207;-53
2022/10/02 11:18:30;;;;;;;;;;;21.40;44.70;;;;;;485296;245;1135;-54
2022/10/02 11:20:30;;;;;;;;;;;21.40;44.80;;;;;;485189;246;2307;-53
2022/10/02 11:22:30;;;;;;;;;;;21.40;44.70;;;;;;485270;245;1851;-54
2022/10/02 11:24:32;;;;;;;;;;;21.40;44.60;;;;;;485289;245;1277;-53
2022/10/02 11:26:33;;;;;;;;;;;21.40;44.60;;;;;;485727;245;2297;-53
2022/10/02 11:28:34;;;;;;;;;;;21.50;44.70;;;;;;485272;245;1185;-53
2022/10/02 11:30:37;;;;;;;;;;;21.40;44.60;;;;;;485737;245;1184;-53
2022/10/02 11:32:37;;;;;;;;;;;21.40;44.50;;;;;;485096;246;2201;-53
2022/10/02 11:34:39;;;;;;;;;;;21.40;44.50;;;;;;485261;245;2179;-53
2022/10/02 11:36:41;;;;;;;;;;;21.40;44.40;;;;;;485767;245;1078;-53
2022/10/02 11:38:42;;;;;;;;;;;21.50;44.40;;;;;;485337;245;1217;-54
2022/10/02 11:40:43;;;;;;;;;;;21.50;44.30;;;;;;485772;245;1192;-54
2022/10/02 11:42:45;;;;;;;;;;;21.50;44.20;;;;;;485756;245;1198;-53
2022/10/02 11:44:46;;;;;;;;;;;21.50;44.20;;;;;;485771;245;1058;-53
2022/10/02 11:46:47;;;;;;;;;;;21.50;44.20;;;;;;485330;245;1239;-53
2022/10/02 11:48:49;;;;;;;;;;;21.40;44.10;;;;;;485539;245;1234;-53
2022/10/02 11:50:50;;;;;;;;;;;21.50;44.10;;;;;;485334;245;1140;-53
2022/10/02 11:52:51;;;;;;;;;;;21.50;44.10;;;;;;485744;245;1203;-53
2022/10/02 11:54:53;;;;;;;;;;;21.40;44.10;;;;;;485268;245;2191;-54
2022/10/02 11:56:59;;;;;;;;;;;21.40;44.00;;;;;;485774;245;1237;-53
2022/10/02 11:58:55;;;;;;;;;;;21.50;44.00;;;;;;484929;246;2327;-53